createdAt,value
2019-04-11T00:01:46.896Z,96.70
2019-04-11T00:06:46.306Z,94.67
2019-04-11T00:11:50.409Z,95.20
2019-04-11T00:16:54.298Z,94.30
2019-04-11T00:21:59.437Z,98.40
2019-04-11T00:27:04.567Z,106.90
2019-04-11T00:32:09.749Z,103.20
2019-04-11T00:37:13.712Z,104.10
2019-04-11T00:42:18.629Z,103.83
2019-04-11T00:47:22.748Z,100.40
2019-04-11T00:52:27.433Z,102.00
2019-04-11T00:57:31.192Z,104.50
2019-04-11T01:02:35.826Z,97.53
2019-04-11T01:07:40.856Z,99.47
2019-04-11T01:12:44.874Z,91.57
2019-04-11T01:17:49.723Z,94.53
2019-04-11T01:22:54.281Z,79.93
2019-04-11T01:27:58.585Z,70.97
2019-04-11T01:33:02.532Z,63.17
2019-04-11T01:38:06.266Z,65.67
2019-04-11T01:43:09.997Z,65.53
2019-04-11T01:48:19.589Z,59.60
2019-04-11T01:53:23.293Z,62.80
2019-04-11T01:58:27.281Z,59.63
2019-04-11T02:03:33.076Z,58.50
2019-04-11T02:08:37.609Z,58.77
2019-04-11T02:13:41.813Z,58.07
2019-04-11T02:18:45.779Z,61.47
2019-04-11T02:23:56.634Z,57.20
2019-04-11T02:29:01.383Z,56.80
2019-04-11T02:34:06.495Z,60.53
2019-04-11T02:39:16.145Z,60.90
2019-04-11T02:44:32.034Z,57.77
2019-04-11T02:49:23.460Z,60.97
2019-04-11T02:54:28.380Z,58.77
2019-04-11T02:59:32.304Z,57.17
2019-04-11T03:04:37.065Z,53.40
2019-04-11T03:09:41.683Z,59.40
2019-04-11T03:15:04.405Z,60.50
2019-04-11T03:20:02.748Z,60.37
2019-04-11T03:24:58.321Z,59.30
2019-04-11T03:30:03.006Z,51.93
2019-04-11T03:40:30.773Z,53.00
2019-04-11T03:45:38.490Z,47.07
2019-04-11T03:50:29.352Z,49.63
2019-04-11T03:55:32.287Z,50.27
2019-04-11T04:00:40.601Z,49.37
2019-04-11T04:05:43.928Z,45.80
2019-04-11T04:11:06.903Z,49.27
2019-04-11T04:16:26.042Z,51.43
2019-04-11T04:21:26.747Z,50.80
2019-04-11T04:26:31.332Z,49.13
2019-04-11T04:31:35.338Z,42.60
2019-04-11T04:36:40.319Z,46.63
2019-04-11T04:41:55.379Z,42.23
2019-04-11T04:47:00.227Z,44.00
2019-04-11T04:51:56.965Z,42.40
2019-04-11T04:57:01.052Z,44.13
2019-04-11T05:02:06.678Z,42.90
2019-04-11T05:07:11.684Z,40.17
2019-04-11T05:12:16.258Z,41.87
2019-04-11T05:17:20.054Z,36.40
2019-04-11T05:22:24.647Z,42.83
2019-04-11T05:27:29.318Z,45.33
2019-04-11T05:32:33.501Z,44.17
2019-04-11T05:37:37.810Z,40.43
2019-04-11T05:42:41.778Z,41.77
2019-04-11T05:47:48.121Z,39.17
2019-04-11T05:52:50.917Z,41.33
2019-04-11T05:57:54.949Z,41.17
2019-04-11T06:03:03.802Z,42.63
2019-04-11T06:08:09.850Z,38.43
2019-04-11T06:13:16.441Z,37.13
2019-04-11T06:18:36.927Z,36.73
2019-04-11T06:23:47.777Z,34.87
2019-04-11T06:28:55.303Z,33.80
2019-04-11T06:34:07.127Z,34.30
2019-04-11T06:39:29.460Z,32.10
2019-04-11T06:44:52.133Z,34.60
2019-04-11T06:50:13.708Z,34.60
2019-04-11T06:55:20.312Z,36.00
2019-04-11T07:00:25.194Z,36.63
2019-04-11T07:05:31.105Z,36.60
2019-04-11T07:10:36.338Z,32.43
2019-04-11T07:15:42.296Z,33.90
2019-04-11T07:20:47.660Z,34.97
2019-04-11T07:25:56.015Z,32.30
2019-04-11T07:31:19.152Z,35.27
2019-04-11T07:36:41.303Z,30.63
2019-04-11T07:41:47.928Z,29.77
2019-04-11T07:47:13.595Z,30.47
2019-04-11T07:52:12.684Z,30.67
2019-04-11T07:57:30.648Z,31.47
2019-04-11T08:02:50.810Z,33.60
2019-04-11T08:08:13.352Z,33.63
2019-04-11T08:13:22.656Z,33.47
2019-04-11T08:18:30.675Z,29.33
2019-04-11T08:23:34.570Z,33.00
2019-04-11T08:28:38.933Z,30.57
2019-04-11T08:33:42.586Z,32.10
2019-04-11T08:38:46.772Z,29.80
2019-04-11T08:43:51.217Z,33.17
2019-04-11T08:49:03.623Z,32.67
2019-04-11T08:54:17.930Z,31.67
2019-04-11T08:59:27.119Z,29.60
2019-04-11T09:04:32.453Z,31.20
2019-04-11T09:09:50.064Z,28.97
2019-04-11T09:14:58.107Z,30.10
2019-04-11T09:25:27.241Z,26.97
2019-04-11T09:30:33.692Z,27.83
2019-04-11T09:35:51.271Z,28.90
2019-04-11T09:41:03.942Z,31.27
2019-04-11T09:46:26.220Z,27.13
2019-04-11T09:51:38.030Z,26.60
2019-04-11T09:56:47.170Z,28.90
2019-04-11T10:01:56.124Z,27.27
2019-04-11T10:07:07.134Z,29.13
2019-04-11T10:12:40.491Z,27.83
2019-04-11T10:18:03.149Z,30.03
2019-04-11T10:23:12.393Z,23.83
2019-04-11T10:28:21.574Z,27.20
2019-04-11T10:33:43.334Z,28.97
2019-04-11T10:38:48.891Z,27.10
2019-04-11T10:43:53.791Z,29.87
2019-04-11T10:49:03.320Z,29.27
2019-04-11T10:54:08.453Z,27.27
2019-04-11T10:59:13.487Z,28.00
2019-04-11T11:04:19.873Z,26.07
2019-04-11T11:09:28.392Z,28.87
2019-04-11T11:14:51.938Z,26.73
2019-04-11T11:20:08.894Z,28.03
2019-04-11T11:25:20.963Z,25.63
2019-04-11T11:30:29.585Z,25.90
2019-04-11T11:35:50.109Z,28.30
2019-04-11T11:41:12.205Z,28.37
2019-04-11T11:46:34.220Z,25.43
2019-04-11T11:51:39.822Z,28.30
2019-04-11T11:56:47.225Z,27.27
2019-04-11T12:02:02.290Z,26.43
2019-04-11T12:07:08.660Z,27.70
2019-04-11T12:12:14.049Z,26.30
2019-04-11T12:17:19.295Z,28.00
2019-04-11T12:22:26.488Z,27.10
2019-04-11T12:33:01.417Z,26.63
2019-04-11T12:38:06.683Z,25.07
2019-04-11T12:43:12.458Z,29.80
2019-04-11T12:48:16.165Z,26.97
2019-04-11T12:53:19.768Z,26.97
2019-04-11T12:58:30.794Z,31.33
2019-04-11T13:03:54.396Z,25.37
2019-04-11T13:08:59.706Z,25.17
2019-04-11T13:14:23.070Z,27.70
2019-04-11T13:19:44.753Z,27.47
2019-04-11T13:25:08.494Z,27.47
2019-04-11T13:30:17.220Z,29.67
2019-04-11T13:35:22.527Z,28.03
2019-04-11T13:40:46.310Z,26.27
2019-04-11T13:46:08.213Z,26.03
2019-04-11T13:51:28.837Z,28.43
2019-04-11T13:56:34.390Z,27.57
2019-04-11T14:01:39.624Z,25.40
2019-04-11T14:06:43.217Z,24.57
2019-04-11T14:11:47.614Z,29.33
2019-04-11T14:16:58.330Z,24.83
2019-04-11T14:22:01.837Z,27.80
2019-04-11T14:27:16.414Z,24.27
2019-04-11T14:32:23.601Z,29.60
2019-04-11T14:37:37.781Z,26.73
2019-04-11T14:42:42.160Z,28.00
2019-04-11T14:48:02.366Z,24.63
2019-04-11T14:53:23.866Z,26.87
2019-04-11T14:58:35.076Z,24.47
2019-04-11T15:03:49.088Z,28.17
2019-04-11T15:08:54.317Z,30.17
2019-04-11T15:13:59.568Z,28.37
2019-04-11T15:19:03.530Z,33.00
2019-04-11T15:24:08.027Z,23.67
2019-04-11T15:29:14.269Z,24.87
2019-04-11T15:34:25.705Z,24.30
2019-04-11T15:39:47.574Z,27.33
2019-04-11T15:44:55.495Z,32.90
2019-04-11T15:50:17.198Z,32.47
2019-04-11T15:55:25.809Z,26.40
2019-04-11T16:00:47.378Z,28.33
2019-04-11T16:11:15.642Z,34.17
2019-04-11T16:16:20.963Z,30.87
2019-04-11T16:21:31.960Z,32.50
2019-04-11T16:26:37.196Z,32.70
2019-04-11T16:31:41.966Z,37.17
2019-04-11T16:36:47.558Z,31.57
2019-04-11T16:41:55.512Z,33.53
2019-04-11T16:47:09.718Z,34.90
2019-04-11T16:52:13.374Z,32.47
2019-04-11T16:57:17.068Z,34.30
2019-04-11T17:02:21.820Z,33.43
2019-04-11T17:07:43.834Z,32.93
2019-04-11T17:12:47.452Z,33.70
2019-04-11T17:17:53.561Z,35.73
2019-04-11T17:22:56.605Z,31.97
2019-04-11T17:28:00.197Z,29.37
2019-04-11T17:33:04.273Z,31.87
2019-04-11T17:38:08.513Z,31.27
2019-04-11T17:43:13.849Z,36.10
2019-04-11T17:48:17.498Z,31.87
2019-04-11T17:53:22.641Z,34.90
2019-04-11T17:58:27.759Z,34.90
2019-04-11T18:03:31.472Z,31.87
2019-04-11T18:08:35.478Z,32.83
2019-04-11T18:13:39.391Z,29.47
2019-04-11T18:18:43.444Z,32.57
2019-04-11T18:23:49.883Z,35.23
2019-04-11T18:28:52.640Z,32.33
2019-04-11T18:33:56.366Z,34.67
2019-04-11T18:39:05.634Z,30.60
2019-04-11T18:44:05.801Z,32.63
2019-04-11T18:49:09.860Z,33.40
2019-04-11T18:54:13.906Z,37.48
2019-04-11T18:59:17.579Z,33.53
2019-04-11T19:04:31.831Z,39.47
2019-04-11T19:09:29.369Z,34.87
2019-04-11T19:14:32.961Z,35.87
2019-04-11T19:19:36.689Z,36.60
2019-04-11T19:24:42.390Z,55.87
2019-04-11T19:29:45.666Z,35.47
2019-04-11T19:34:49.291Z,38.00
2019-04-11T19:39:52.886Z,37.47
2019-04-11T19:44:56.481Z,48.10
2019-04-11T19:50:00.090Z,38.47
2019-04-11T19:55:07.203Z,33.80
2019-04-11T20:00:13.143Z,35.87
2019-04-11T20:05:16.738Z,37.63
2019-04-11T20:10:20.400Z,41.07
2019-04-11T20:15:24.487Z,44.33
2019-04-11T20:20:28.215Z,40.77
2019-04-11T20:25:32.020Z,41.23
2019-04-11T20:30:35.771Z,38.90
2019-04-11T20:35:40.028Z,40.83
2019-04-11T20:40:44.361Z,42.93
2019-04-11T20:45:48.050Z,40.63
2019-04-11T20:50:51.640Z,40.30
2019-04-11T20:55:55.365Z,39.73
2019-04-11T21:00:59.143Z,42.43
2019-04-11T21:06:02.729Z,43.43
2019-04-11T21:11:06.553Z,41.90
2019-04-11T21:16:10.330Z,40.93
2019-04-11T21:21:14.134Z,35.00
2019-04-11T21:26:17.883Z,37.00
2019-04-11T21:31:21.866Z,34.00
2019-04-11T21:36:26.949Z,37.20
2019-04-11T21:41:31.273Z,38.77
2019-04-11T21:46:37.288Z,37.30
2019-04-11T21:51:42.297Z,34.33
2019-04-11T21:56:49.216Z,38.20
2019-04-11T22:01:53.805Z,34.37
2019-04-11T22:07:00.708Z,35.63
2019-04-11T22:12:02.033Z,31.63
2019-04-11T22:17:05.705Z,28.87
2019-04-11T22:22:09.374Z,31.70
2019-04-11T22:27:13.033Z,32.50
2019-04-11T22:32:16.704Z,33.37
2019-04-11T22:37:20.588Z,31.73
2019-04-11T22:42:24.249Z,36.90
2019-04-11T22:47:27.852Z,32.13
2019-04-11T22:52:31.433Z,32.07
2019-04-11T22:57:35.106Z,33.33
2019-04-11T23:02:44.952Z,34.23
2019-04-11T23:07:49.016Z,30.37
2019-04-11T23:12:52.649Z,32.20
2019-04-11T23:17:56.244Z,32.30
2019-04-11T23:22:59.841Z,33.27
2019-04-11T23:28:03.432Z,32.17
2019-04-11T23:33:07.025Z,33.07
2019-04-11T23:38:10.933Z,31.53
2019-04-11T23:43:15.391Z,34.17
2019-04-11T23:48:19.028Z,30.20
2019-04-11T23:53:22.685Z,32.80
2019-04-11T23:58:26.348Z,33.53
